sensor_id;sensor_type;location;lat;lon;timestamp;P1;durP1;ratioP1;P2;durP2;ratioP2
62102;SDS011;48077;48.104;11.702;2023-06-24T00:01:03;9.95;;;5.80;;
62102;SDS011;48077;48.104;11.702;2023-06-24T00:07:40;12.05;;;9.13;;
62102;SDS011;48077;48.104;11.702;2023-06-24T00:10:07;11.93;;;8.85;;
62102;SDS011;48077;48.104;11.702;2023-06-24T00:12:30;12.23;;;8.70;;
62102;SDS011;48077;48.104;11.702;2023-06-24T00:14:55;9.50;;;6.05;;
62102;SDS011;48077;48.104;11.702;2023-06-24T00:17:19;10.80;;;6.95;;
62102;SDS011;48077;48.104;11.702;2023-06-24T00:19:43;8.23;;;6.13;;
62102;SDS011;48077;48.104;11.702;2023-06-24T00:22:07;10.05;;;6.55;;
62102;SDS011;48077;48.104;11.702;2023-06-24T00:24:30;10.50;;;6.85;;
62102;SDS011;48077;48.104;11.702;2023-06-24T00:26:54;10.55;;;6.55;;
62102;SDS011;48077;48.104;11.702;2023-06-24T00:29:18;9.45;;;6.40;;
62102;SDS011;48077;48.104;11.702;2023-06-24T00:31:41;7.50;;;6.20;;
62102;SDS011;48077;48.104;11.702;2023-06-24T00:34:04;8.43;;;6.00;;
62102;SDS011;48077;48.104;11.702;2023-06-24T00:36:28;10.45;;;6.45;;
62102;SDS011;48077;48.104;11.702;2023-06-24T00:38:51;11.38;;;5.97;;
62102;SDS011;48077;48.104;11.702;2023-06-24T00:41:17;10.38;;;7.90;;
62102;SDS011;48077;48.104;11.702;2023-06-24T00:43:41;12.27;;;7.88;;
62102;SDS011;48077;48.104;11.702;2023-06-24T00:46:05;10.50;;;6.10;;
62102;SDS011;48077;48.104;11.702;2023-06-24T00:48:29;12.55;;;7.88;;
62102;SDS011;48077;48.104;11.702;2023-06-24T00:50:54;9.43;;;6.63;;
62102;SDS011;48077;48.104;11.702;2023-06-24T00:53:21;8.68;;;6.28;;
62102;SDS011;48077;48.104;11.702;2023-06-24T00:55:47;8.93;;;6.22;;
62102;SDS011;48077;48.104;11.702;2023-06-24T00:58:11;11.20;;;7.68;;
62102;SDS011;48077;48.104;11.702;2023-06-24T01:00:39;9.50;;;6.22;;
62102;SDS011;48077;48.104;11.702;2023-06-24T01:03:04;10.57;;;6.18;;
62102;SDS011;48077;48.104;11.702;2023-06-24T01:05:28;11.23;;;7.95;;
62102;SDS011;48077;48.104;11.702;2023-06-24T01:07:51;10.48;;;5.82;;
62102;SDS011;48077;48.104;11.702;2023-06-24T01:10:18;12.32;;;8.25;;
62102;SDS011;48077;48.104;11.702;2023-06-24T01:12:44;11.20;;;6.25;;
62102;SDS011;48077;48.104;11.702;2023-06-24T01:15:08;12.45;;;6.78;;
62102;SDS011;48077;48.104;11.702;2023-06-24T01:17:36;9.00;;;6.00;;
62102;SDS011;48077;48.104;11.702;2023-06-24T01:25:21;10.07;;;5.75;;
62102;SDS011;48077;48.104;11.702;2023-06-24T01:28:09;10.70;;;7.57;;
62102;SDS011;48077;48.104;11.702;2023-06-24T01:36:36;6.18;;;5.47;;
62102;SDS011;48077;48.104;11.702;2023-06-24T01:39:03;9.18;;;5.55;;
62102;SDS011;48077;48.104;11.702;2023-06-24T01:41:35;10.30;;;6.72;;
62102;SDS011;48077;48.104;11.702;2023-06-24T01:44:03;10.57;;;8.35;;
62102;SDS011;48077;48.104;11.702;2023-06-24T01:46:28;8.75;;;6.10;;
62102;SDS011;48077;48.104;11.702;2023-06-24T01:48:53;9.73;;;6.32;;
62102;SDS011;48077;48.104;11.702;2023-06-24T01:51:20;7.32;;;4.97;;
62102;SDS011;48077;48.104;11.702;2023-06-24T01:53:51;9.30;;;6.30;;
62102;SDS011;48077;48.104;11.702;2023-06-24T01:56:17;11.05;;;7.90;;
62102;SDS011;48077;48.104;11.702;2023-06-24T01:58:43;8.98;;;6.60;;
62102;SDS011;48077;48.104;11.702;2023-06-24T02:01:09;12.23;;;6.47;;
62102;SDS011;48077;48.104;11.702;2023-06-24T02:03:35;9.25;;;7.15;;
62102;SDS011;48077;48.104;11.702;2023-06-24T02:05:59;10.07;;;5.65;;
62102;SDS011;48077;48.104;11.702;2023-06-24T02:08:24;9.60;;;5.68;;
62102;SDS011;48077;48.104;11.702;2023-06-24T02:10:52;8.30;;;5.57;;
62102;SDS011;48077;48.104;11.702;2023-06-24T02:13:15;7.30;;;5.85;;
62102;SDS011;48077;48.104;11.702;2023-06-24T02:15:41;8.00;;;5.70;;
62102;SDS011;48077;48.104;11.702;2023-06-24T02:18:04;7.97;;;5.95;;
62102;SDS011;48077;48.104;11.702;2023-06-24T02:20:30;8.82;;;5.82;;
62102;SDS011;48077;48.104;11.702;2023-06-24T02:22:54;9.35;;;5.72;;
62102;SDS011;48077;48.104;11.702;2023-06-24T02:25:19;10.63;;;6.47;;
62102;SDS011;48077;48.104;11.702;2023-06-24T02:27:45;12.18;;;6.05;;
62102;SDS011;48077;48.104;11.702;2023-06-24T02:30:09;9.38;;;5.90;;
62102;SDS011;48077;48.104;11.702;2023-06-24T02:32:33;8.27;;;5.68;;
62102;SDS011;48077;48.104;11.702;2023-06-24T02:34:59;10.05;;;8.10;;
62102;SDS011;48077;48.104;11.702;2023-06-24T02:37:22;9.13;;;6.05;;
62102;SDS011;48077;48.104;11.702;2023-06-24T02:39:45;8.98;;;7.45;;
62102;SDS011;48077;48.104;11.702;2023-06-24T02:42:10;12.40;;;6.43;;
62102;SDS011;48077;48.104;11.702;2023-06-24T02:44:34;11.95;;;8.23;;
62102;SDS011;48077;48.104;11.702;2023-06-24T02:46:57;9.60;;;6.47;;
62102;SDS011;48077;48.104;11.702;2023-06-24T02:49:22;10.68;;;7.72;;
62102;SDS011;48077;48.104;11.702;2023-06-24T02:51:46;11.82;;;6.88;;
62102;SDS011;48077;48.104;11.702;2023-06-24T02:54:10;8.25;;;6.28;;
62102;SDS011;48077;48.104;11.702;2023-06-24T02:56:35;12.77;;;8.60;;
62102;SDS011;48077;48.104;11.702;2023-06-24T02:59:06;10.65;;;6.55;;
62102;SDS011;48077;48.104;11.702;2023-06-24T03:01:30;9.73;;;7.75;;
62102;SDS011;48077;48.104;11.702;2023-06-24T03:03:54;9.73;;;6.13;;
62102;SDS011;48077;48.104;11.702;2023-06-24T03:06:18;10.32;;;7.72;;
62102;SDS011;48077;48.104;11.702;2023-06-24T03:08:42;12.40;;;8.10;;
62102;SDS011;48077;48.104;11.702;2023-06-24T03:11:05;8.32;;;5.75;;
62102;SDS011;48077;48.104;11.702;2023-06-24T03:13:29;10.55;;;6.30;;
62102;SDS011;48077;48.104;11.702;2023-06-24T03:15:52;11.35;;;6.35;;
62102;SDS011;48077;48.104;11.702;2023-06-24T03:18:16;10.30;;;6.72;;
62102;SDS011;48077;48.104;11.702;2023-06-24T03:20:39;12.20;;;7.70;;
62102;SDS011;48077;48.104;11.702;2023-06-24T03:23:03;10.75;;;6.25;;
62102;SDS011;48077;48.104;11.702;2023-06-24T03:25:26;9.80;;;7.28;;
62102;SDS011;48077;48.104;11.702;2023-06-24T03:27:50;8.98;;;7.00;;
62102;SDS011;48077;48.104;11.702;2023-06-24T03:30:13;9.48;;;8.52;;
62102;SDS011;48077;48.104;11.702;2023-06-24T03:32:39;12.88;;;8.70;;
62102;SDS011;48077;48.104;11.702;2023-06-24T03:35:03;12.00;;;8.93;;
62102;SDS011;48077;48.104;11.702;2023-06-24T03:37:30;8.85;;;6.82;;
62102;SDS011;48077;48.104;11.702;2023-06-24T03:39:53;10.80;;;7.40;;
62102;SDS011;48077;48.104;11.702;2023-06-24T03:42:16;11.52;;;7.43;;
62102;SDS011;48077;48.104;11.702;2023-06-24T03:44:40;11.65;;;7.25;;
62102;SDS011;48077;48.104;11.702;2023-06-24T03:47:03;9.60;;;6.70;;
62102;SDS011;48077;48.104;11.702;2023-06-24T03:49:26;8.93;;;6.43;;
62102;SDS011;48077;48.104;11.702;2023-06-24T03:51:50;12.18;;;6.43;;
62102;SDS011;48077;48.104;11.702;2023-06-24T03:54:13;12.20;;;7.07;;
62102;SDS011;48077;48.104;11.702;2023-06-24T03:56:37;8.90;;;6.45;;
62102;SDS011;48077;48.104;11.702;2023-06-24T03:59:01;9.80;;;6.43;;
62102;SDS011;48077;48.104;11.702;2023-06-24T04:01:24;11.90;;;6.85;;
62102;SDS011;48077;48.104;11.702;2023-06-24T04:03:47;8.63;;;6.15;;
62102;SDS011;48077;48.104;11.702;2023-06-24T04:06:11;11.65;;;7.22;;
62102;SDS011;48077;48.104;11.702;2023-06-24T04:08:34;8.73;;;5.97;;
62102;SDS011;48077;48.104;11.702;2023-06-24T04:11:02;14.00;;;8.63;;
62102;SDS011;48077;48.104;11.702;2023-06-24T04:13:26;10.45;;;7.03;;
62102;SDS011;48077;48.104;11.702;2023-06-24T04:15:49;9.70;;;6.78;;
62102;SDS011;48077;48.104;11.702;2023-06-24T04:18:13;9.00;;;6.32;;
62102;SDS011;48077;48.104;11.702;2023-06-24T04:20:37;10.40;;;7.75;;
62102;SDS011;48077;48.104;11.702;2023-06-24T04:23:00;10.30;;;6.43;;
62102;SDS011;48077;48.104;11.702;2023-06-24T04:25:24;11.63;;;8.32;;
62102;SDS011;48077;48.104;11.702;2023-06-24T04:27:47;11.73;;;6.78;;
62102;SDS011;48077;48.104;11.702;2023-06-24T04:30:10;10.13;;;7.85;;
62102;SDS011;48077;48.104;11.702;2023-06-24T04:32:34;12.35;;;8.63;;
62102;SDS011;48077;48.104;11.702;2023-06-24T04:34:58;10.82;;;6.55;;
62102;SDS011;48077;48.104;11.702;2023-06-24T04:37:25;9.73;;;6.07;;
62102;SDS011;48077;48.104;11.702;2023-06-24T04:39:48;7.65;;;5.80;;
62102;SDS011;48077;48.104;11.702;2023-06-24T04:42:12;9.30;;;6.10;;
62102;SDS011;48077;48.104;11.702;2023-06-24T04:44:36;9.18;;;6.03;;
62102;SDS011;48077;48.104;11.702;2023-06-24T04:46:59;7.22;;;5.13;;
62102;SDS011;48077;48.104;11.702;2023-06-24T04:49:23;10.82;;;6.97;;
62102;SDS011;48077;48.104;11.702;2023-06-24T04:51:46;10.15;;;7.43;;
62102;SDS011;48077;48.104;11.702;2023-06-24T04:54:10;9.20;;;5.93;;
62102;SDS011;48077;48.104;11.702;2023-06-24T04:56:35;10.73;;;6.40;;
62102;SDS011;48077;48.104;11.702;2023-06-24T04:58:58;11.98;;;7.47;;
62102;SDS011;48077;48.104;11.702;2023-06-24T05:01:22;12.95;;;7.03;;
62102;SDS011;48077;48.104;11.702;2023-06-24T05:03:46;8.07;;;5.38;;
62102;SDS011;48077;48.104;11.702;2023-06-24T05:06:10;8.20;;;6.20;;
62102;SDS011;48077;48.104;11.702;2023-06-24T05:08:33;7.38;;;5.38;;
62102;SDS011;48077;48.104;11.702;2023-06-24T05:10:56;9.38;;;5.80;;
62102;SDS011;48077;48.104;11.702;2023-06-24T05:13:20;9.70;;;6.15;;
62102;SDS011;48077;48.104;11.702;2023-06-24T05:15:43;9.25;;;5.93;;
62102;SDS011;48077;48.104;11.702;2023-06-24T05:18:06;9.50;;;6.07;;
62102;SDS011;48077;48.104;11.702;2023-06-24T05:20:30;10.50;;;7.70;;
62102;SDS011;48077;48.104;11.702;2023-06-24T05:22:53;10.25;;;7.22;;
62102;SDS011;48077;48.104;11.702;2023-06-24T05:25:17;9.32;;;6.00;;
62102;SDS011;48077;48.104;11.702;2023-06-24T05:27:40;8.25;;;5.82;;
62102;SDS011;48077;48.104;11.702;2023-06-24T05:30:07;10.50;;;6.40;;
62102;SDS011;48077;48.104;11.702;2023-06-24T05:32:31;11.45;;;5.75;;
62102;SDS011;48077;48.104;11.702;2023-06-24T05:34:54;10.82;;;7.00;;
62102;SDS011;48077;48.104;11.702;2023-06-24T05:37:18;6.20;;;5.18;;
62102;SDS011;48077;48.104;11.702;2023-06-24T05:39:43;8.85;;;5.93;;
62102;SDS011;48077;48.104;11.702;2023-06-24T05:42:06;9.05;;;5.63;;
62102;SDS011;48077;48.104;11.702;2023-06-24T05:44:30;8.15;;;4.97;;
62102;SDS011;48077;48.104;11.702;2023-06-24T05:46:54;10.05;;;5.22;;
62102;SDS011;48077;48.104;11.702;2023-06-24T05:49:17;8.27;;;5.25;;
62102;SDS011;48077;48.104;11.702;2023-06-24T05:51:40;9.05;;;6.38;;
62102;SDS011;48077;48.104;11.702;2023-06-24T05:54:04;11.15;;;5.60;;
62102;SDS011;48077;48.104;11.702;2023-06-24T05:56:27;8.15;;;5.10;;
62102;SDS011;48077;48.104;11.702;2023-06-24T05:58:51;6.72;;;4.75;;
62102;SDS011;48077;48.104;11.702;2023-06-24T06:01:14;9.00;;;5.22;;
62102;SDS011;48077;48.104;11.702;2023-06-24T06:03:37;10.88;;;6.63;;
62102;SDS011;48077;48.104;11.702;2023-06-24T06:06:01;10.75;;;5.25;;
62102;SDS011;48077;48.104;11.702;2023-06-24T06:08:24;9.90;;;6.72;;
62102;SDS011;48077;48.104;11.702;2023-06-24T06:10:48;7.55;;;5.63;;
62102;SDS011;48077;48.104;11.702;2023-06-24T06:13:11;8.10;;;5.30;;
62102;SDS011;48077;48.104;11.702;2023-06-24T06:15:35;9.38;;;4.80;;
62102;SDS011;48077;48.104;11.702;2023-06-24T06:17:58;8.30;;;4.88;;
62102;SDS011;48077;48.104;11.702;2023-06-24T06:20:21;9.25;;;4.47;;
62102;SDS011;48077;48.104;11.702;2023-06-24T06:22:45;8.40;;;4.40;;
62102;SDS011;48077;48.104;11.702;2023-06-24T06:25:08;8.65;;;4.82;;
62102;SDS011;48077;48.104;11.702;2023-06-24T06:27:32;6.85;;;5.10;;
62102;SDS011;48077;48.104;11.702;2023-06-24T06:29:55;6.65;;;4.45;;
62102;SDS011;48077;48.104;11.702;2023-06-24T06:32:18;10.93;;;5.30;;
62102;SDS011;48077;48.104;11.702;2023-06-24T06:34:42;7.60;;;4.28;;
62102;SDS011;48077;48.104;11.702;2023-06-24T06:37:05;7.00;;;4.10;;
62102;SDS011;48077;48.104;11.702;2023-06-24T06:39:29;7.70;;;4.50;;
62102;SDS011;48077;48.104;11.702;2023-06-24T06:41:52;7.25;;;4.45;;
62102;SDS011;48077;48.104;11.702;2023-06-24T06:44:15;7.45;;;4.13;;
62102;SDS011;48077;48.104;11.702;2023-06-24T06:46:39;9.50;;;4.63;;
62102;SDS011;48077;48.104;11.702;2023-06-24T06:49:02;8.10;;;4.55;;
62102;SDS011;48077;48.104;11.702;2023-06-24T06:51:28;7.13;;;4.68;;
62102;SDS011;48077;48.104;11.702;2023-06-24T06:53:51;6.68;;;3.92;;
62102;SDS011;48077;48.104;11.702;2023-06-24T06:56:22;9.60;;;6.13;;
62102;SDS011;48077;48.104;11.702;2023-06-24T06:58:47;7.53;;;4.72;;
62102;SDS011;48077;48.104;11.702;2023-06-24T07:01:10;8.00;;;4.22;;
62102;SDS011;48077;48.104;11.702;2023-06-24T07:03:33;8.90;;;5.55;;
62102;SDS011;48077;48.104;11.702;2023-06-24T07:05:57;9.38;;;4.22;;
62102;SDS011;48077;48.104;11.702;2023-06-24T07:08:20;10.07;;;4.70;;
62102;SDS011;48077;48.104;11.702;2023-06-24T07:10:43;10.60;;;5.05;;
62102;SDS011;48077;48.104;11.702;2023-06-24T07:13:07;9.85;;;5.03;;
62102;SDS011;48077;48.104;11.702;2023-06-24T07:15:31;7.93;;;4.78;;
62102;SDS011;48077;48.104;11.702;2023-06-24T07:17:54;9.50;;;4.38;;
62102;SDS011;48077;48.104;11.702;2023-06-24T07:20:17;8.25;;;4.13;;
62102;SDS011;48077;48.104;11.702;2023-06-24T07:22:41;7.55;;;4.90;;
62102;SDS011;48077;48.104;11.702;2023-06-24T07:25:04;6.93;;;4.15;;
62102;SDS011;48077;48.104;11.702;2023-06-24T07:27:27;7.28;;;4.80;;
62102;SDS011;48077;48.104;11.702;2023-06-24T07:29:51;8.18;;;4.20;;
62102;SDS011;48077;48.104;11.702;2023-06-24T07:32:14;8.32;;;5.35;;
62102;SDS011;48077;48.104;11.702;2023-06-24T07:34:37;8.93;;;5.03;;
62102;SDS011;48077;48.104;11.702;2023-06-24T07:37:01;6.50;;;3.67;;
62102;SDS011;48077;48.104;11.702;2023-06-24T07:39:24;8.70;;;4.80;;
62102;SDS011;48077;48.104;11.702;2023-06-24T07:41:48;8.55;;;4.25;;
62102;SDS011;48077;48.104;11.702;2023-06-24T07:44:11;6.35;;;3.85;;
62102;SDS011;48077;48.104;11.702;2023-06-24T07:46:35;7.45;;;5.03;;
62102;SDS011;48077;48.104;11.702;2023-06-24T07:48:58;9.77;;;4.03;;
62102;SDS011;48077;48.104;11.702;2023-06-24T07:51:21;7.68;;;4.53;;
62102;SDS011;48077;48.104;11.702;2023-06-24T07:53:45;6.88;;;3.83;;
62102;SDS011;48077;48.104;11.702;2023-06-24T07:56:08;7.65;;;4.38;;
62102;SDS011;48077;48.104;11.702;2023-06-24T07:58:31;8.25;;;4.88;;
62102;SDS011;48077;48.104;11.702;2023-06-24T08:00:56;9.23;;;4.38;;
62102;SDS011;48077;48.104;11.702;2023-06-24T08:03:20;7.72;;;4.20;;
62102;SDS011;48077;48.104;11.702;2023-06-24T08:05:44;6.32;;;4.18;;
62102;SDS011;48077;48.104;11.702;2023-06-24T08:08:08;9.07;;;4.43;;
62102;SDS011;48077;48.104;11.702;2023-06-24T08:10:31;8.40;;;3.60;;
62102;SDS011;48077;48.104;11.702;2023-06-24T08:12:55;5.28;;;3.63;;
62102;SDS011;48077;48.104;11.702;2023-06-24T08:15:19;7.63;;;4.05;;
62102;SDS011;48077;48.104;11.702;2023-06-24T08:17:42;9.63;;;4.30;;
62102;SDS011;48077;48.104;11.702;2023-06-24T08:20:05;5.88;;;3.47;;
62102;SDS011;48077;48.104;11.702;2023-06-24T08:22:29;9.63;;;3.85;;
62102;SDS011;48077;48.104;11.702;2023-06-24T08:24:53;8.85;;;4.22;;
62102;SDS011;48077;48.104;11.702;2023-06-24T08:27:16;7.75;;;3.78;;
62102;SDS011;48077;48.104;11.702;2023-06-24T08:29:39;8.85;;;5.07;;
62102;SDS011;48077;48.104;11.702;2023-06-24T08:32:03;6.25;;;3.22;;
62102;SDS011;48077;48.104;11.702;2023-06-24T08:34:27;3.85;;;3.28;;
62102;SDS011;48077;48.104;11.702;2023-06-24T08:36:51;5.25;;;3.53;;
62102;SDS011;48077;48.104;11.702;2023-06-24T08:39:14;9.90;;;3.97;;
62102;SDS011;48077;48.104;11.702;2023-06-24T08:41:37;9.10;;;3.97;;
62102;SDS011;48077;48.104;11.702;2023-06-24T08:44:01;6.60;;;4.10;;
62102;SDS011;48077;48.104;11.702;2023-06-24T08:46:24;7.43;;;3.90;;
62102;SDS011;48077;48.104;11.702;2023-06-24T08:48:48;7.05;;;3.83;;
62102;SDS011;48077;48.104;11.702;2023-06-24T08:51:18;8.45;;;4.63;;
62102;SDS011;48077;48.104;11.702;2023-06-24T08:53:45;6.38;;;3.45;;
62102;SDS011;48077;48.104;11.702;2023-06-24T08:56:08;6.75;;;4.00;;
62102;SDS011;48077;48.104;11.702;2023-06-24T08:58:33;8.50;;;4.20;;
62102;SDS011;48077;48.104;11.702;2023-06-24T09:00:56;6.25;;;3.78;;
62102;SDS011;48077;48.104;11.702;2023-06-24T09:03:20;7.28;;;4.07;;
62102;SDS011;48077;48.104;11.702;2023-06-24T09:05:44;7.55;;;4.20;;
62102;SDS011;48077;48.104;11.702;2023-06-24T09:08:07;6.13;;;3.70;;
62102;SDS011;48077;48.104;11.702;2023-06-24T09:10:35;10.50;;;5.15;;
62102;SDS011;48077;48.104;11.702;2023-06-24T09:13:00;8.93;;;4.15;;
62102;SDS011;48077;48.104;11.702;2023-06-24T09:15:24;6.50;;;3.85;;
62102;SDS011;48077;48.104;11.702;2023-06-24T09:17:47;8.98;;;5.03;;
62102;SDS011;48077;48.104;11.702;2023-06-24T09:20:11;7.07;;;4.38;;
62102;SDS011;48077;48.104;11.702;2023-06-24T09:22:34;8.07;;;4.50;;
62102;SDS011;48077;48.104;11.702;2023-06-24T09:25:00;7.32;;;4.45;;
62102;SDS011;48077;48.104;11.702;2023-06-24T09:27:23;6.93;;;4.72;;
62102;SDS011;48077;48.104;11.702;2023-06-24T09:29:47;8.65;;;4.90;;
62102;SDS011;48077;48.104;11.702;2023-06-24T09:32:10;7.85;;;4.20;;
62102;SDS011;48077;48.104;11.702;2023-06-24T09:34:34;6.47;;;3.78;;
62102;SDS011;48077;48.104;11.702;2023-06-24T09:36:58;8.07;;;4.53;;
62102;SDS011;48077;48.104;11.702;2023-06-24T09:39:22;6.47;;;4.07;;
62102;SDS011;48077;48.104;11.702;2023-06-24T09:41:53;6.82;;;4.00;;
62102;SDS011;48077;48.104;11.702;2023-06-24T09:44:20;8.30;;;5.10;;
62102;SDS011;48077;48.104;11.702;2023-06-24T09:46:44;8.40;;;4.68;;
62102;SDS011;48077;48.104;11.702;2023-06-24T09:49:07;10.07;;;5.10;;
62102;SDS011;48077;48.104;11.702;2023-06-24T09:51:42;9.45;;;4.70;;
62102;SDS011;48077;48.104;11.702;2023-06-24T09:54:08;6.15;;;4.15;;
62102;SDS011;48077;48.104;11.702;2023-06-24T09:56:35;8.80;;;4.35;;
62102;SDS011;48077;48.104;11.702;2023-06-24T09:59:00;7.72;;;4.82;;
62102;SDS011;48077;48.104;11.702;2023-06-24T10:01:24;6.97;;;5.00;;
62102;SDS011;48077;48.104;11.702;2023-06-24T10:03:47;9.52;;;5.38;;
62102;SDS011;48077;48.104;11.702;2023-06-24T10:06:11;6.55;;;4.55;;
62102;SDS011;48077;48.104;11.702;2023-06-24T10:08:36;9.27;;;4.68;;
62102;SDS011;48077;48.104;11.702;2023-06-24T10:11:02;6.55;;;3.88;;
62102;SDS011;48077;48.104;11.702;2023-06-24T10:13:25;9.32;;;5.57;;
62102;SDS011;48077;48.104;11.702;2023-06-24T10:15:49;7.05;;;4.47;;
62102;SDS011;48077;48.104;11.702;2023-06-24T10:20:54;9.52;;;5.35;;
62102;SDS011;48077;48.104;11.702;2023-06-24T10:23:17;7.80;;;4.68;;
62102;SDS011;48077;48.104;11.702;2023-06-24T10:25:41;9.93;;;5.30;;
62102;SDS011;48077;48.104;11.702;2023-06-24T10:28:04;8.75;;;4.90;;
62102;SDS011;48077;48.104;11.702;2023-06-24T10:30:27;9.75;;;4.85;;
62102;SDS011;48077;48.104;11.702;2023-06-24T10:32:52;10.50;;;5.28;;
62102;SDS011;48077;48.104;11.702;2023-06-24T10:35:22;12.80;;;4.93;;
62102;SDS011;48077;48.104;11.702;2023-06-24T10:37:53;7.65;;;4.18;;
62102;SDS011;48077;48.104;11.702;2023-06-24T10:40:18;7.28;;;4.40;;
62102;SDS011;48077;48.104;11.702;2023-06-24T10:42:57;7.15;;;4.88;;
62102;SDS011;48077;48.104;11.702;2023-06-24T10:45:22;7.53;;;4.20;;
62102;SDS011;48077;48.104;11.702;2023-06-24T10:47:46;8.45;;;4.90;;
62102;SDS011;48077;48.104;11.702;2023-06-24T10:50:12;7.43;;;4.97;;
62102;SDS011;48077;48.104;11.702;2023-06-24T10:52:40;7.68;;;4.82;;
62102;SDS011;48077;48.104;11.702;2023-06-24T10:55:05;10.23;;;4.75;;
62102;SDS011;48077;48.104;11.702;2023-06-24T10:57:30;7.22;;;4.18;;
62102;SDS011;48077;48.104;11.702;2023-06-24T10:59:54;8.02;;;5.30;;
62102;SDS011;48077;48.104;11.702;2023-06-24T11:02:19;6.32;;;4.50;;
62102;SDS011;48077;48.104;11.702;2023-06-24T11:07:07;7.00;;;4.22;;
62102;SDS011;48077;48.104;11.702;2023-06-24T11:09:30;9.77;;;5.32;;
62102;SDS011;48077;48.104;11.702;2023-06-24T11:11:54;11.15;;;5.07;;
62102;SDS011;48077;48.104;11.702;2023-06-24T11:14:17;9.05;;;4.93;;
62102;SDS011;48077;48.104;11.702;2023-06-24T11:16:42;8.25;;;4.05;;
62102;SDS011;48077;48.104;11.702;2023-06-24T11:19:08;7.68;;;4.15;;
62102;SDS011;48077;48.104;11.702;2023-06-24T11:21:31;8.23;;;4.82;;
62102;SDS011;48077;48.104;11.702;2023-06-24T11:23:55;7.97;;;4.13;;
62102;SDS011;48077;48.104;11.702;2023-06-24T11:28:47;6.63;;;4.17;;
62102;SDS011;48077;48.104;11.702;2023-06-24T11:31:12;10.75;;;5.07;;
62102;SDS011;48077;48.104;11.702;2023-06-24T11:33:37;8.23;;;4.72;;
62102;SDS011;48077;48.104;11.702;2023-06-24T11:36:01;8.07;;;4.28;;
62102;SDS011;48077;48.104;11.702;2023-06-24T11:38:24;8.43;;;4.32;;
62102;SDS011;48077;48.104;11.702;2023-06-24T11:40:57;11.43;;;4.75;;
62102;SDS011;48077;48.104;11.702;2023-06-24T11:43:21;6.32;;;3.65;;
62102;SDS011;48077;48.104;11.702;2023-06-24T11:45:48;6.87;;;3.87;;
62102;SDS011;48077;48.104;11.702;2023-06-24T11:48:12;8.60;;;4.25;;
62102;SDS011;48077;48.104;11.702;2023-06-24T11:50:35;7.88;;;4.47;;
62102;SDS011;48077;48.104;11.702;2023-06-24T11:52:58;6.47;;;4.10;;
62102;SDS011;48077;48.104;11.702;2023-06-24T11:55:23;6.30;;;3.65;;
62102;SDS011;48077;48.104;11.702;2023-06-24T12:00:18;9.50;;;4.95;;
62102;SDS011;48077;48.104;11.702;2023-06-24T12:02:43;7.45;;;4.45;;
62102;SDS011;48077;48.104;11.702;2023-06-24T12:05:06;6.82;;;4.43;;
62102;SDS011;48077;48.104;11.702;2023-06-24T12:07:29;9.20;;;4.63;;
62102;SDS011;48077;48.104;11.702;2023-06-24T12:09:53;4.93;;;3.75;;
62102;SDS011;48077;48.104;11.702;2023-06-24T12:12:17;8.32;;;4.47;;
62102;SDS011;48077;48.104;11.702;2023-06-24T12:14:40;8.05;;;4.63;;
62102;SDS011;48077;48.104;11.702;2023-06-24T12:17:04;7.10;;;4.43;;
62102;SDS011;48077;48.104;11.702;2023-06-24T12:19:27;6.22;;;4.00;;
62102;SDS011;48077;48.104;11.702;2023-06-24T12:21:50;8.20;;;4.93;;
62102;SDS011;48077;48.104;11.702;2023-06-24T12:24:14;7.55;;;4.20;;
62102;SDS011;48077;48.104;11.702;2023-06-24T12:26:37;7.40;;;3.75;;
62102;SDS011;48077;48.104;11.702;2023-06-24T12:29:00;7.57;;;4.05;;
62102;SDS011;48077;48.104;11.702;2023-06-24T12:31:24;6.47;;;4.25;;
62102;SDS011;48077;48.104;11.702;2023-06-24T12:33:47;7.85;;;4.45;;
62102;SDS011;48077;48.104;11.702;2023-06-24T12:36:11;6.93;;;4.93;;
62102;SDS011;48077;48.104;11.702;2023-06-24T12:38:34;7.72;;;4.60;;
62102;SDS011;48077;48.104;11.702;2023-06-24T12:40:58;6.82;;;4.15;;
62102;SDS011;48077;48.104;11.702;2023-06-24T12:43:21;7.75;;;4.97;;
62102;SDS011;48077;48.104;11.702;2023-06-24T12:45:45;5.72;;;3.50;;
62102;SDS011;48077;48.104;11.702;2023-06-24T12:48:09;6.38;;;4.22;;
62102;SDS011;48077;48.104;11.702;2023-06-24T12:50:33;6.90;;;4.50;;
62102;SDS011;48077;48.104;11.702;2023-06-24T12:52:57;5.03;;;3.92;;
62102;SDS011;48077;48.104;11.702;2023-06-24T12:55:20;5.40;;;4.03;;
62102;SDS011;48077;48.104;11.702;2023-06-24T12:57:44;6.38;;;4.00;;
62102;SDS011;48077;48.104;11.702;2023-06-24T13:00:07;8.38;;;4.88;;
62102;SDS011;48077;48.104;11.702;2023-06-24T13:02:31;9.60;;;4.72;;
62102;SDS011;48077;48.104;11.702;2023-06-24T13:04:58;6.40;;;4.20;;
62102;SDS011;48077;48.104;11.702;2023-06-24T13:07:21;7.90;;;4.70;;
62102;SDS011;48077;48.104;11.702;2023-06-24T13:09:44;6.35;;;4.00;;
62102;SDS011;48077;48.104;11.702;2023-06-24T13:12:08;8.63;;;4.93;;
62102;SDS011;48077;48.104;11.702;2023-06-24T13:14:31;7.15;;;5.43;;
62102;SDS011;48077;48.104;11.702;2023-06-24T13:16:55;6.63;;;4.40;;
62102;SDS011;48077;48.104;11.702;2023-06-24T13:19:18;6.95;;;4.45;;
62102;SDS011;48077;48.104;11.702;2023-06-24T13:21:42;7.03;;;4.55;;
62102;SDS011;48077;48.104;11.702;2023-06-24T13:24:05;8.95;;;4.35;;
62102;SDS011;48077;48.104;11.702;2023-06-24T13:26:29;6.82;;;3.97;;
62102;SDS011;48077;48.104;11.702;2023-06-24T13:28:52;8.30;;;4.57;;
62102;SDS011;48077;48.104;11.702;2023-06-24T13:31:17;8.68;;;5.05;;
62102;SDS011;48077;48.104;11.702;2023-06-24T13:33:40;6.57;;;4.13;;
62102;SDS011;48077;48.104;11.702;2023-06-24T13:36:07;7.95;;;5.03;;
62102;SDS011;48077;48.104;11.702;2023-06-24T13:38:36;8.90;;;4.50;;
62102;SDS011;48077;48.104;11.702;2023-06-24T13:41:00;5.78;;;4.18;;
62102;SDS011;48077;48.104;11.702;2023-06-24T13:43:23;5.38;;;3.95;;
62102;SDS011;48077;48.104;11.702;2023-06-24T13:45:46;8.40;;;4.72;;
62102;SDS011;48077;48.104;11.702;2023-06-24T13:48:10;8.45;;;4.22;;
62102;SDS011;48077;48.104;11.702;2023-06-24T13:50:33;6.57;;;4.18;;
62102;SDS011;48077;48.104;11.702;2023-06-24T13:52:56;4.78;;;4.13;;
62102;SDS011;48077;48.104;11.702;2023-06-24T13:55:20;6.32;;;4.30;;
62102;SDS011;48077;48.104;11.702;2023-06-24T13:57:43;6.18;;;4.38;;
62102;SDS011;48077;48.104;11.702;2023-06-24T14:00:07;6.07;;;4.47;;
62102;SDS011;48077;48.104;11.702;2023-06-24T14:02:32;5.60;;;3.92;;
62102;SDS011;48077;48.104;11.702;2023-06-24T14:04:55;8.15;;;4.85;;
62102;SDS011;48077;48.104;11.702;2023-06-24T14:07:18;5.13;;;4.55;;
62102;SDS011;48077;48.104;11.702;2023-06-24T14:09:42;5.35;;;4.70;;
62102;SDS011;48077;48.104;11.702;2023-06-24T14:12:05;5.35;;;4.00;;
62102;SDS011;48077;48.104;11.702;2023-06-24T14:14:29;5.03;;;4.13;;
62102;SDS011;48077;48.104;11.702;2023-06-24T14:16:53;5.10;;;3.75;;
62102;SDS011;48077;48.104;11.702;2023-06-24T14:19:18;5.22;;;3.50;;
62102;SDS011;48077;48.104;11.702;2023-06-24T14:21:42;5.78;;;3.97;;
62102;SDS011;48077;48.104;11.702;2023-06-24T14:24:06;4.22;;;3.60;;
62102;SDS011;48077;48.104;11.702;2023-06-24T14:26:31;6.90;;;3.90;;
62102;SDS011;48077;48.104;11.702;2023-06-24T14:28:54;5.45;;;3.60;;
62102;SDS011;48077;48.104;11.702;2023-06-24T14:31:17;5.53;;;3.90;;
62102;SDS011;48077;48.104;11.702;2023-06-24T14:33:43;6.15;;;3.95;;
62102;SDS011;48077;48.104;11.702;2023-06-24T14:36:06;5.57;;;3.75;;
62102;SDS011;48077;48.104;11.702;2023-06-24T14:38:29;7.63;;;4.25;;